Terminal Aerodrome Forecast
Issued by NWS

Home | Current Version | Previous Version | Text Only | Print | Product List | Glossary On
Versions: 1 2 3 4 5 6 7 8 9 10 11 12 13 14 15 16 17 18 19 20 21 22 23 24 25 26 27 28
000
FTUS45 KGJT 221138
TAFEGE
TAF
KEGE 221138Z 2212/2312 VRB04KT P6SM -RA OVC080
     FM221400 VRB03KT P6SM VCSH SCT080 BKN110
     FM222000 23008KT P6SM VCTS SCT080CB BKN120
     FM230200 24004KT P6SM VCSH SCT080 BKN110
     FM230600 07003KT P6SM -RA SCT050 OVC070
      AMD LTD TO CLD VIS AND WIND TIL 221300=

USA.gov is the U.S. government's official web portal to all federal, state and local government web resources and services.